createdAt,value
2022-10-17T00:00:57.108Z,101058.50
2022-10-17T00:03:45.240Z,101064.03
2022-10-17T00:06:31.755Z,101061.13
2022-10-17T00:09:18.035Z,101068.28
2022-10-17T00:12:05.933Z,101058.75
2022-10-17T00:14:52.578Z,101059.91
2022-10-17T00:17:42.221Z,101048.03
2022-10-17T00:20:30.600Z,101055.91
2022-10-17T00:23:17.579Z,101063.22
2022-10-17T00:26:05.832Z,101072.69
2022-10-17T00:28:52.886Z,101064.78
2022-10-17T00:31:42.194Z,101053.41
2022-10-17T00:34:29.557Z,101067.53
2022-10-17T00:37:15.996Z,101065.00
2022-10-17T00:40:02.597Z,101071.78
2022-10-17T00:42:51.205Z,101073.53
2022-10-17T00:45:37.584Z,101073.47
2022-10-17T00:48:26.798Z,101066.06
2022-10-17T00:51:12.859Z,101061.06
2022-10-17T00:54:00.675Z,101069.09
2022-10-17T00:56:48.040Z,101071.28
2022-10-17T00:59:36.958Z,101074.34
2022-10-17T01:02:23.353Z,101066.41
2022-10-17T01:05:12.175Z,101058.81
2022-10-17T01:07:59.641Z,101058.44
2022-10-17T01:11:07.829Z,101057.94
2022-10-17T01:14:27.134Z,101060.72
2022-10-17T01:17:24.917Z,101068.88
2022-10-17T01:20:29.102Z,101063.78
2022-10-17T01:23:28.360Z,101068.56
2022-10-17T01:26:51.849Z,101065.56
2022-10-17T01:29:47.971Z,101068.28
2022-10-17T01:33:11.784Z,101058.31
2022-10-17T01:36:04.891Z,101052.59
2022-10-17T01:38:57.731Z,101056.34
2022-10-17T01:42:07.397Z,101053.22
2022-10-17T01:44:56.425Z,101055.66
2022-10-17T01:47:42.806Z,101059.22
2022-10-17T01:50:34.960Z,101062.78
2022-10-17T01:53:29.363Z,101065.75
2022-10-17T01:56:16.339Z,101060.78
2022-10-17T01:59:14.807Z,101067.22
2022-10-17T02:02:01.004Z,101072.81
2022-10-17T02:04:48.681Z,101063.47
2022-10-17T02:07:34.925Z,101075.44
2022-10-17T02:10:44.699Z,101071.16
2022-10-17T02:17:02.507Z,101064.97
2022-10-17T02:19:57.464Z,101065.19
2022-10-17T02:22:51.549Z,101063.81
2022-10-17T02:25:51.714Z,101072.81
2022-10-17T02:31:40.128Z,101072.69
2022-10-17T02:34:32.642Z,101073.00
2022-10-17T02:37:24.194Z,101067.56
2022-10-17T02:40:14.490Z,101070.63
2022-10-17T02:43:01.214Z,101081.19
2022-10-17T02:45:48.994Z,101077.16
2022-10-17T02:48:39.192Z,101075.53
2022-10-17T02:51:44.533Z,101087.81
2022-10-17T02:54:39.978Z,101089.00
2022-10-17T02:57:42.218Z,101087.66
2022-10-17T03:00:29.275Z,101091.22
2022-10-17T03:03:21.117Z,101099.03
2022-10-17T03:06:07.718Z,101101.00
2022-10-17T03:08:54.186Z,101096.06
2022-10-17T03:11:40.682Z,101096.28
2022-10-17T03:14:27.176Z,101094.31
2022-10-17T03:17:15.628Z,101095.53
2022-10-17T03:20:04.693Z,101101.37
2022-10-17T03:22:51.511Z,101095.34
2022-10-17T03:25:41.251Z,101104.87
2022-10-17T03:28:32.331Z,101100.56
2022-10-17T03:31:18.845Z,101109.88
2022-10-17T03:34:09.831Z,101109.88
2022-10-17T03:36:57.328Z,101112.84
2022-10-17T03:39:44.889Z,101115.25
2022-10-17T03:42:32.448Z,101120.22
2022-10-17T03:45:20.378Z,101115.91
2022-10-17T03:48:07.648Z,101134.53
2022-10-17T03:51:01.374Z,101137.25
2022-10-17T03:53:47.542Z,101134.78
2022-10-17T03:56:33.987Z,101132.03
2022-10-17T03:59:20.494Z,101139.41
2022-10-17T04:02:10.251Z,101142.97
2022-10-17T04:05:00.042Z,101133.69
2022-10-17T04:07:52.526Z,101136.97
2022-10-17T04:10:40.639Z,101136.38
2022-10-17T04:13:28.481Z,101137.78
2022-10-17T04:16:19.583Z,101142.16
2022-10-17T04:19:12.861Z,101134.78
2022-10-17T04:21:59.853Z,101140.22
2022-10-17T04:24:48.544Z,101142.22
2022-10-17T04:27:36.095Z,101143.25
2022-10-17T04:30:23.388Z,101160.56
2022-10-17T04:33:12.597Z,101164.91
2022-10-17T04:36:12.210Z,101161.34
2022-10-17T04:39:02.931Z,101161.91
2022-10-17T04:41:52.056Z,101162.75
2022-10-17T04:44:48.792Z,101160.28
2022-10-17T04:47:39.507Z,101161.94
2022-10-17T04:50:27.326Z,101162.69
2022-10-17T04:53:23.321Z,101164.66
2022-10-17T04:56:17.381Z,101165.69
2022-10-17T04:59:05.014Z,101171.25
2022-10-17T05:01:53.674Z,101174.50
2022-10-17T05:04:41.664Z,101178.66
2022-10-17T05:07:35.682Z,101174.56
2022-10-17T05:10:22.877Z,101175.66
2022-10-17T05:13:11.777Z,101184.44
2022-10-17T05:16:02.482Z,101185.78
2022-10-17T05:18:58.524Z,101190.47
2022-10-17T05:21:52.562Z,101185.22
2022-10-17T05:24:41.440Z,101191.53
2022-10-17T05:27:30.619Z,101203.19
2022-10-17T05:30:19.431Z,101210.63
2022-10-17T05:33:06.631Z,101213.47
2022-10-17T05:35:53.977Z,101211.53
2022-10-17T05:38:43.768Z,101213.16
2022-10-17T05:41:33.024Z,101218.22
2022-10-17T05:44:21.883Z,101219.78
2022-10-17T05:47:12.085Z,101219.50
2022-10-17T05:50:02.945Z,101230.44
2022-10-17T05:52:55.777Z,101224.47
2022-10-17T05:55:43.355Z,101234.53
2022-10-17T06:01:38.667Z,101241.38
2022-10-17T06:04:27.951Z,101245.97
2022-10-17T06:07:15.706Z,101258.16
2022-10-17T06:10:09.172Z,101246.38
2022-10-17T06:12:57.671Z,101261.72
2022-10-17T06:15:46.227Z,101261.47
2022-10-17T06:18:33.643Z,101259.25
2022-10-17T06:21:23.624Z,101274.63
2022-10-17T06:24:10.127Z,101276.81
2022-10-17T06:26:58.058Z,101274.37
2022-10-17T06:29:47.520Z,101272.66
2022-10-17T06:32:50.777Z,101280.94
2022-10-17T06:35:37.684Z,101285.88
2022-10-17T06:38:29.553Z,101280.13
2022-10-17T06:41:19.334Z,101290.53
2022-10-17T06:44:12.724Z,101288.56
2022-10-17T06:47:00.957Z,101292.41
2022-10-17T06:49:49.214Z,101299.72
2022-10-17T06:52:37.557Z,101306.62
2022-10-17T06:55:26.887Z,101305.38
2022-10-17T06:58:14.430Z,101306.03
2022-10-17T07:01:04.243Z,101319.72
2022-10-17T07:03:58.712Z,101314.97
2022-10-17T07:06:47.542Z,101318.22
2022-10-17T07:09:34.747Z,101317.56
2022-10-17T07:12:21.864Z,101316.50
2022-10-17T07:15:10.239Z,101322.53
2022-10-17T07:17:57.567Z,101315.34
2022-10-17T07:20:53.923Z,101320.84
2022-10-17T07:23:41.832Z,101323.72
2022-10-17T07:26:30.682Z,101317.56
2022-10-17T07:29:17.703Z,101324.41
2022-10-17T07:32:08.838Z,101320.97
2022-10-17T07:34:59.684Z,101322.03
2022-10-17T07:37:50.045Z,101318.06
2022-10-17T07:40:39.530Z,101324.59
2022-10-17T07:43:28.530Z,101321.25
2022-10-17T07:46:16.206Z,101327.03
2022-10-17T07:49:04.488Z,101331.41
2022-10-17T07:51:52.964Z,101332.22
2022-10-17T07:54:40.598Z,101327.50
2022-10-17T07:57:30.536Z,101328.28
2022-10-17T08:00:17.497Z,101328.31
2022-10-17T08:03:08.287Z,101332.75
2022-10-17T08:06:00.498Z,101328.84
2022-10-17T08:08:59.510Z,101332.56
2022-10-17T08:11:46.864Z,101337.94
2022-10-17T08:14:33.779Z,101343.50
2022-10-17T08:17:21.853Z,101340.66
2022-10-17T08:20:11.915Z,101339.94
2022-10-17T08:22:59.985Z,101346.34
2022-10-17T08:25:50.946Z,101345.84
2022-10-17T08:28:40.559Z,101349.41
2022-10-17T08:31:28.909Z,101348.81
2022-10-17T08:34:15.943Z,101348.06
2022-10-17T08:37:03.271Z,101351.25
2022-10-17T08:39:50.042Z,101348.47
2022-10-17T08:42:55.484Z,101341.31
2022-10-17T08:46:00.543Z,101352.41
2022-10-17T08:48:49.573Z,101345.37
2022-10-17T08:51:50.171Z,101348.97
2022-10-17T08:54:43.065Z,101355.75
2022-10-17T08:57:36.507Z,101357.06
2022-10-17T09:00:25.427Z,101356.09
2022-10-17T09:03:27.716Z,101351.25
2022-10-17T09:06:33.451Z,101346.75
2022-10-17T09:09:47.081Z,101351.78
2022-10-17T09:12:41.804Z,101346.75
2022-10-17T09:15:47.993Z,101346.31
2022-10-17T09:18:41.771Z,101346.44
2022-10-17T09:21:42.214Z,101343.25
2022-10-17T09:24:41.693Z,101346.44
2022-10-17T09:27:36.061Z,101344.19
2022-10-17T09:30:46.248Z,101348.47
2022-10-17T09:34:00.224Z,101342.78
2022-10-17T09:36:47.045Z,101348.87
2022-10-17T09:39:34.619Z,101344.16
2022-10-17T09:42:27.921Z,101346.88
2022-10-17T09:45:24.919Z,101347.06
2022-10-17T09:48:28.780Z,101345.81
2022-10-17T09:51:25.595Z,101343.97
2022-10-17T09:54:23.836Z,101351.87
2022-10-17T09:57:17.515Z,101345.34
2022-10-17T10:00:07.572Z,101342.28
2022-10-17T10:03:14.546Z,101343.25
2022-10-17T10:06:27.862Z,101337.53
2022-10-17T10:09:26.098Z,101341.47
2022-10-17T10:12:26.770Z,101339.00
2022-10-17T10:15:34.292Z,101333.53
2022-10-17T10:18:36.542Z,101339.16
2022-10-17T10:21:27.536Z,101335.13
2022-10-17T10:24:14.720Z,101329.78
2022-10-17T10:27:05.782Z,101326.81
2022-10-17T10:29:54.701Z,101332.13
2022-10-17T10:35:43.607Z,101325.59
2022-10-17T10:38:32.710Z,101327.88
2022-10-17T10:41:19.842Z,101315.91
2022-10-17T10:44:07.512Z,101319.41
2022-10-17T10:47:27.467Z,101317.25
2022-10-17T10:50:23.094Z,101322.13
2022-10-17T10:53:49.751Z,101320.03
2022-10-17T10:56:41.525Z,101322.25
2022-10-17T10:59:34.310Z,101317.28
2022-10-17T11:02:46.821Z,101319.31
2022-10-17T11:05:58.237Z,101318.91
2022-10-17T11:08:53.730Z,101315.91
2022-10-17T11:12:01.519Z,101316.16
2022-10-17T11:15:14.989Z,101323.03
2022-10-17T11:18:08.037Z,101306.72
2022-10-17T11:21:03.740Z,101299.19
2022-10-17T11:24:14.737Z,101302.88
2022-10-17T11:27:05.884Z,101312.13
2022-10-17T11:30:03.725Z,101305.97
2022-10-17T11:33:00.368Z,101302.44
2022-10-17T11:35:50.591Z,101293.38
2022-10-17T11:38:46.381Z,101305.84
2022-10-17T11:44:39.581Z,101285.22
2022-10-17T11:47:31.666Z,101291.59
2022-10-17T11:57:06.853Z,101283.22
2022-10-17T11:59:57.696Z,101281.50
2022-10-17T12:03:23.767Z,101287.13
2022-10-17T12:06:19.514Z,101288.78
2022-10-17T12:09:16.271Z,101284.97
2022-10-17T12:12:05.136Z,101275.53
2022-10-17T12:14:51.852Z,101276.22
2022-10-17T12:18:02.670Z,101274.72
2022-10-17T12:20:57.978Z,101277.13
2022-10-17T12:23:54.064Z,101266.34
2022-10-17T12:26:41.833Z,101263.41
2022-10-17T12:29:33.607Z,101256.94
2022-10-17T12:32:21.416Z,101252.78
2022-10-17T12:35:21.500Z,101258.06
2022-10-17T12:38:17.739Z,101250.87
2022-10-17T12:41:06.755Z,101246.34
2022-10-17T12:43:55.542Z,101242.28
2022-10-17T12:47:10.696Z,101250.37
2022-10-17T12:49:57.184Z,101250.87
2022-10-17T12:52:44.348Z,101252.53
2022-10-17T12:55:34.336Z,101243.31
2022-10-17T12:58:40.550Z,101249.28
2022-10-17T13:01:39.585Z,101246.87
2022-10-17T13:04:36.668Z,101252.97
2022-10-17T13:07:27.213Z,101242.66
2022-10-17T13:10:22.238Z,101235.34
2022-10-17T13:13:22.783Z,101247.59
2022-10-17T13:16:29.350Z,101242.88
2022-10-17T13:19:24.019Z,101237.53
2022-10-17T13:22:20.752Z,101237.63
2022-10-17T13:25:27.490Z,101240.84
2022-10-17T13:28:22.890Z,101234.31
2022-10-17T13:31:27.758Z,101235.38
2022-10-17T13:37:18.338Z,101229.72
2022-10-17T13:40:30.700Z,101224.69
2022-10-17T13:43:17.282Z,101225.03
2022-10-17T13:46:32.533Z,101228.47
2022-10-17T13:49:24.446Z,101226.41
2022-10-17T13:52:22.591Z,101227.94
2022-10-17T13:55:12.491Z,101226.87
2022-10-17T13:58:18.512Z,101226.75
2022-10-17T14:01:06.279Z,101221.56
2022-10-17T14:04:08.960Z,101220.03
2022-10-17T14:06:57.919Z,101219.22
2022-10-17T14:09:54.538Z,101222.28
2022-10-17T14:12:46.333Z,101213.00
2022-10-17T14:15:36.816Z,101222.47
2022-10-17T14:18:26.079Z,101225.62
2022-10-17T14:21:43.340Z,101218.34
2022-10-17T14:24:48.588Z,101212.22
2022-10-17T14:27:38.390Z,101211.66
2022-10-17T14:30:55.292Z,101209.81
2022-10-17T14:33:50.583Z,101213.53
2022-10-17T14:36:39.863Z,101211.31
2022-10-17T14:39:27.748Z,101211.97
2022-10-17T14:42:21.989Z,101212.38
2022-10-17T14:45:14.382Z,101212.66
2022-10-17T14:48:08.782Z,101212.97
2022-10-17T14:51:15.878Z,101218.31
2022-10-17T14:54:18.775Z,101213.50
2022-10-17T14:57:40.490Z,101210.63
2022-10-17T15:00:35.875Z,101207.84
2022-10-17T15:03:34.607Z,101205.81
2022-10-17T15:06:34.834Z,101207.03
2022-10-17T15:09:27.571Z,101212.63
2022-10-17T15:12:22.390Z,101208.62
2022-10-17T15:15:16.316Z,101198.53
2022-10-17T15:18:05.534Z,101206.09
2022-10-17T15:21:04.504Z,101210.00
2022-10-17T15:23:56.933Z,101202.53
2022-10-17T15:26:56.759Z,101212.91
2022-10-17T15:29:57.721Z,101212.03
2022-10-17T15:32:44.309Z,101223.31
2022-10-17T15:35:30.949Z,101216.97
2022-10-17T15:41:26.609Z,101220.84
2022-10-17T15:44:14.393Z,101226.56
2022-10-17T15:47:04.687Z,101224.69
2022-10-17T15:49:58.053Z,101226.34
2022-10-17T15:52:44.796Z,101230.78
2022-10-17T15:55:38.549Z,101230.31
2022-10-17T15:58:33.706Z,101239.75
2022-10-17T16:01:31.634Z,101235.50
2022-10-17T16:04:27.638Z,101243.63
2022-10-17T16:07:19.646Z,101238.53
2022-10-17T16:10:17.848Z,101253.56
2022-10-17T16:13:10.627Z,101251.00
2022-10-17T16:16:02.506Z,101249.12
2022-10-17T16:19:02.354Z,101245.81
2022-10-17T16:22:03.638Z,101249.38
2022-10-17T16:25:08.619Z,101255.56
2022-10-17T16:27:58.313Z,101252.38
2022-10-17T16:30:59.684Z,101255.75
2022-10-17T16:33:58.592Z,101250.22
2022-10-17T16:42:46.978Z,101261.56
2022-10-17T16:45:42.738Z,101267.94
2022-10-17T16:48:29.879Z,101267.44
2022-10-17T16:51:23.262Z,101273.56
2022-10-17T16:54:18.819Z,101262.44
2022-10-17T16:57:22.528Z,101264.72
2022-10-17T17:00:19.067Z,101272.56
2022-10-17T17:03:05.712Z,101264.25
2022-10-17T17:06:12.604Z,101275.50
2022-10-17T17:09:12.564Z,101270.06
2022-10-17T17:12:15.929Z,101274.09
2022-10-17T17:15:13.637Z,101273.72
2022-10-17T17:18:07.771Z,101280.22
2022-10-17T17:21:02.579Z,101281.37
2022-10-17T17:24:02.783Z,101288.06
2022-10-17T17:27:12.829Z,101290.06
2022-10-17T17:30:10.081Z,101292.94
2022-10-17T17:33:04.594Z,101294.06
2022-10-17T17:38:54.141Z,101283.81
2022-10-17T17:41:52.672Z,101287.56
2022-10-17T17:44:45.763Z,101289.22
2022-10-17T17:47:34.878Z,101294.75
2022-10-17T17:50:23.406Z,101286.25
2022-10-17T17:53:20.778Z,101291.13
2022-10-17T17:56:20.793Z,101291.47
2022-10-17T18:02:15.778Z,101287.06
2022-10-17T18:05:03.279Z,101294.69
2022-10-17T18:08:01.537Z,101290.16
2022-10-17T18:10:57.585Z,101289.16
2022-10-17T18:16:46.730Z,101287.69
2022-10-17T18:19:39.611Z,101287.91
2022-10-17T18:22:29.748Z,101288.56
2022-10-17T18:25:20.965Z,101284.81
2022-10-17T18:28:21.652Z,101287.47
2022-10-17T18:31:24.506Z,101280.53
2022-10-17T18:34:11.487Z,101291.81
2022-10-17T18:37:00.173Z,101284.72
2022-10-17T18:39:52.533Z,101287.38
2022-10-17T18:42:44.609Z,101291.06
2022-10-17T18:45:36.719Z,101294.75
2022-10-17T18:48:23.101Z,101289.94
2022-10-17T18:51:13.853Z,101293.56
2022-10-17T18:54:07.619Z,101291.25
2022-10-17T18:57:00.683Z,101290.41
2022-10-17T18:59:56.634Z,101298.37
2022-10-17T19:02:56.005Z,101289.12
2022-10-17T19:05:48.952Z,101289.91
2022-10-17T19:08:38.789Z,101282.84
2022-10-17T19:11:32.938Z,101285.50
2022-10-17T19:14:21.869Z,101298.69
2022-10-17T19:17:11.841Z,101295.53
2022-10-17T19:20:00.851Z,101296.00
2022-10-17T19:22:55.591Z,101291.69
2022-10-17T19:25:50.715Z,101281.50
2022-10-17T19:28:43.656Z,101287.44
2022-10-17T19:31:34.718Z,101287.87
2022-10-17T19:34:21.940Z,101290.13
2022-10-17T19:37:08.396Z,101290.06
2022-10-17T19:39:58.684Z,101282.66
2022-10-17T19:42:49.562Z,101289.47
2022-10-17T19:45:45.868Z,101287.59
2022-10-17T19:48:34.088Z,101290.06
2022-10-17T19:51:30.486Z,101283.63
2022-10-17T19:54:20.584Z,101290.00
2022-10-17T19:57:10.441Z,101287.25
2022-10-17T19:59:59.729Z,101284.81
2022-10-17T20:03:03.077Z,101287.50
2022-10-17T20:05:50.688Z,101295.38
2022-10-17T20:08:46.865Z,101288.47
2022-10-17T20:17:29.396Z,101291.00
2022-10-17T20:20:18.149Z,101301.06
2022-10-17T20:23:08.787Z,101293.66
2022-10-17T20:26:08.049Z,101296.88
2022-10-17T20:29:14.880Z,101286.03
2022-10-17T20:32:11.696Z,101289.56
2022-10-17T20:34:59.094Z,101291.44
2022-10-17T20:37:45.481Z,101294.66
2022-10-17T20:40:36.806Z,101291.31
2022-10-17T20:43:23.033Z,101283.78
2022-10-17T20:46:29.399Z,101281.47
2022-10-17T20:49:31.565Z,101283.28
2022-10-17T20:52:20.208Z,101294.28
2022-10-17T20:55:07.142Z,101294.19
2022-10-17T20:57:54.862Z,101282.81
2022-10-17T21:00:42.309Z,101283.91
2022-10-17T21:03:31.216Z,101282.03
2022-10-17T21:06:19.867Z,101286.72
2022-10-17T21:09:07.928Z,101290.16
2022-10-17T21:11:56.005Z,101290.94
2022-10-17T21:14:42.072Z,101286.88
2022-10-17T21:17:27.950Z,101282.50
2022-10-17T21:20:14.758Z,101283.84
2022-10-17T21:23:01.137Z,101291.34
2022-10-17T21:25:47.698Z,101291.63
2022-10-17T21:28:35.874Z,101292.53
2022-10-17T21:31:23.981Z,101284.19
2022-10-17T21:34:12.123Z,101295.41
2022-10-17T21:37:00.927Z,101287.34
2022-10-17T21:39:47.788Z,101286.31
2022-10-17T21:42:36.531Z,101285.69
2022-10-17T21:45:25.921Z,101294.72
2022-10-17T21:48:13.271Z,101291.06
2022-10-17T21:51:00.120Z,101284.41
2022-10-17T21:53:46.238Z,101284.97
2022-10-17T21:56:35.542Z,101287.31
2022-10-17T21:59:22.023Z,101291.06
2022-10-17T22:02:08.825Z,101283.47
2022-10-17T22:04:55.333Z,101282.75
2022-10-17T22:07:41.035Z,101281.28
2022-10-17T22:10:27.423Z,101278.91
2022-10-17T22:13:13.338Z,101277.50
2022-10-17T22:16:00.402Z,101277.06
2022-10-17T22:18:46.541Z,101270.13
2022-10-17T22:21:33.367Z,101277.44
2022-10-17T22:27:10.415Z,101275.09
2022-10-17T22:29:56.231Z,101269.75
2022-10-17T22:32:42.426Z,101268.78
2022-10-17T22:35:29.529Z,101272.50
2022-10-17T22:38:16.388Z,101266.69
2022-10-17T22:41:08.626Z,101267.00
2022-10-17T22:43:55.193Z,101276.84
2022-10-17T22:46:42.662Z,101260.63
2022-10-17T22:49:29.187Z,101269.41
2022-10-17T22:52:15.549Z,101279.47
2022-10-17T22:55:01.845Z,101277.31
2022-10-17T22:57:49.278Z,101277.94
2022-10-17T23:00:35.735Z,101273.25
2022-10-17T23:03:22.318Z,101268.88
2022-10-17T23:06:09.119Z,101269.41
2022-10-17T23:08:56.562Z,101266.09
2022-10-17T23:11:44.684Z,101266.69
2022-10-17T23:14:30.743Z,101258.41
2022-10-17T23:17:18.532Z,101248.31
2022-10-17T23:20:04.569Z,101243.06
2022-10-17T23:22:52.776Z,101238.69
2022-10-17T23:25:38.600Z,101240.34
2022-10-17T23:28:24.867Z,101236.50
2022-10-17T23:31:11.950Z,101239.28
2022-10-17T23:33:58.317Z,101237.63
2022-10-17T23:36:45.077Z,101234.53
2022-10-17T23:39:32.372Z,101238.03
2022-10-17T23:42:20.066Z,101237.50
2022-10-17T23:45:09.896Z,101238.59
2022-10-17T23:47:55.886Z,101231.47
2022-10-17T23:50:42.487Z,101237.00
2022-10-17T23:53:28.338Z,101236.50
2022-10-17T23:56:15.730Z,101227.75
2022-10-17T23:59:01.698Z,101226.06
